Tuesday, January 16, 2018, 11:53 AM GMT
Back to Local

CYPQ, Peterborough Airport

Location: , , Canada Lat: 44.233
Local Time: 11:53 AM GMT (11:53 GMT) Lon: -78.367
Time Zone: GMT Elev: 626 ft

Show me the last for .
Show Decoded

2018-01-16 11:41 METAR CYPQ 161141Z AUTO 05003KT 6SM -SN BKN022 BKN032 OVC039 M14/M15 A3035 RMK
                 SLP296 =
2018-01-16 11:40 METAR CYPQ 161140Z AUTO 05003KT 6SM -SN SCT022 BKN032 OVC039 M14/M15 A3035 RMK
                 SLP296 =
2018-01-16 11:08 METAR CYPQ 161108Z AUTO 06004KT 3SM -SN OVC034 M13/M15 A3034 RMK SLP293 =
2018-01-16 11:02 METAR CYPQ 161102Z AUTO 05005KT 2 1/2SM -SN OVC034 M13/M15 A3034 RMK SLP292 =
2018-01-16 11:00 METAR CYPQ 161100Z AUTO 05004KT 3SM -SN OVC034 M13/M15 A3034 RMK SLP292 =
2018-01-16 10:56 METAR CYPQ 161056Z AUTO 06004KT 5SM -SN OVC036 M13/M15 A3034 RMK SLP292 =
2018-01-16 10:33 METAR CYPQ 161033Z AUTO 04005KT 6SM -SN FEW011 OVC040 M13/M15 A3034 RMK SLP293 =
2018-01-16 10:25 METAR CYPQ 161025Z AUTO 05004KT 3SM -SN SCT011 OVC034 M13/M15 A3034 RMK SLP291 =
2018-01-16 10:12 METAR CYPQ 161012Z AUTO 07002KT 3SM -SN BKN011 OVC028 M13/M15 A3034 RMK SLP291 =
2018-01-16 10:08 METAR CYPQ 161008Z AUTO 06004KT 2 1/2SM -SN BKN011 OVC028 M13/M15 A3034 RMK
                 SLP291 =
2018-01-16 10:00 METAR CYPQ 161000Z AUTO 06003KT 030V100 2SM -SN BKN011 OVC027 M13/M15 A3034 RMK
                 VIS VRB 1 1/2-2 1/2 SLP291 =
2018-01-16 09:57 METAR CYPQ 160957Z AUTO 07004KT 030V100 2 1/4SM -SN BKN011 OVC027 M13/M15 A3033
                 RMK VIS VRB 1 1/2-3 SLP290 =
2018-01-16 09:54 METAR CYPQ 160954Z AUTO 05005KT 2 1/2SM -SN BKN011 OVC031 M13/M15 A3033 RMK VIS
                 VRB 1 1/2-3 SLP290 =
2018-01-16 09:37 METAR CYPQ 160937Z AUTO 06006KT 4SM -SN BKN013 OVC035 M13/M15 A3033 RMK SLP290 =
2018-01-16 09:09 METAR CYPQ 160909Z AUTO 06004KT 5SM -SN FEW012 OVC037 M13/M15 A3033 RMK SLP290 =
2018-01-16 09:00 METAR CYPQ 160900Z AUTO 06005KT 7SM -SN OVC037 M13/M15 A3033 RMK SLP290 =
2018-01-16 08:53 METAR CYPQ 160853Z AUTO 05006KT 6SM -SN OVC035 M13/M15 A3033 RMK SLP289 =
2018-01-16 08:42 METAR CYPQ 160842Z AUTO 05006KT 3SM -SN OVC029 M13/M15 A3034 RMK SLP291 =
2018-01-16 08:34 METAR CYPQ 160834Z AUTO 06007KT 2 1/2SM -SN FEW012 OVC027 M13/M15 A3034 RMK
                 SLP292 =
2018-01-16 08:24 METAR CYPQ 160824Z AUTO 05005KT 2SM -SN SCT012 OVC025 M13/M15 A3034 RMK SLP292 =
2018-01-16 08:13 METAR CYPQ 160813Z AUTO 06005KT 2 1/4SM -SN BKN012 OVC025 M13/M15 A3034 RMK
                 SLP292 =
2018-01-16 08:08 METAR CYPQ 160808Z AUTO 06005KT 2 1/2SM -SN OVC012 M13/M15 A3034 RMK SLP292 =
2018-01-16 08:01 METAR CYPQ 160801Z AUTO 07005KT 5SM -SN OVC012 M13/M15 A3034 RMK SLP291 =
2018-01-16 08:00 METAR CYPQ 160800Z AUTO 07005KT 6SM -SN OVC012 M13/M15 A3034 RMK SLP291 =
2018-01-16 07:37 METAR CYPQ 160737Z AUTO 07004KT 6SM -SN BKN014 OVC020 M13/M15 A3034 RMK SLP291 =
2018-01-16 07:25 METAR CYPQ 160725Z AUTO 06004KT 5SM -SN BKN016 OVC036 M13/M15 A3034 RMK SLP291
2018-01-16 07:20 METAR CYPQ 160720Z AUTO 07005KT 040V110 6SM -SN BKN016 OVC038 M13/M15 A3034 RMK
                 SLP291 =
2018-01-16 07:12 METAR CYPQ 160712Z AUTO 08003KT 040V110 4SM -SN BKN016 OVC038 M13/M15 A3034 RMK
                 SLP291 =
2018-01-16 07:00 METAR CYPQ 160700Z AUTO 05006KT 5SM -SN SCT018 BKN031 OVC036 M13/M15 A3033 RMK
                 SLP290 =
2018-01-16 06:54 METAR CYPQ 160654Z AUTO 05005KT 9SM -SN BKN018 BKN031 OVC044 M13/M15 A3034 RMK
                 SLP291 =
2018-01-16 06:40 METAR CYPQ 160640Z AUTO 05006KT 9SM BKN016 OVC034 M13/M15 A3033 RMK SLP290 =
2018-01-16 06:12 METAR CYPQ 160612Z AUTO 05004KT 6SM -SN OVC016 M14/M15 A3033 RMK SLP290 =
2018-01-16 06:00 METAR CYPQ 160600Z AUTO 06003KT 3SM -SN BKN018 M14/M15 A3033 RMK SLP290 =
2018-01-16 05:58 METAR CYPQ 160558Z AUTO 06004KT 2 1/2SM -SN OVC018 M13/M15 A3033 RMK VIS VRB 1
                 1/2-3 SLP290 =
2018-01-16 05:34 METAR CYPQ 160534Z AUTO 06005KT 1 1/2SM -SN OVC024 M13/M15 A3034 RMK SLP292 =
2018-01-16 05:00 METAR CYPQ 160500Z AUTO 05006KT 1 1/2SM -SN OVC026 M13/M14 A3035 RMK SLP294 =
2018-01-16 04:40 METAR CYPQ 160440Z AUTO 06004KT 1 1/2SM -SN OVC026 M13/M14 A3036 RMK SLP298 =
2018-01-16 04:31 METAR CYPQ 160431Z AUTO 08003KT 1 1/2SM -SN OVC024 M13/M14 A3036 RMK SLP300 =
2018-01-16 04:14 METAR CYPQ 160414Z AUTO 08005KT 040V120 1 1/4SM -SN OVC020 M13/M15 A3036 RMK
                 SLP300 =
2018-01-16 04:01 METAR CYPQ 160401Z AUTO 07005KT 1 1/2SM -SN OVC018 M13/M14 A3037 RMK SLP303 =
2018-01-16 04:00 METAR CYPQ 160400Z AUTO 07005KT 1 1/4SM -SN OVC018 M13/M14 A3037 RMK SLP303 =
2018-01-16 03:36 METAR CYPQ 160336Z AUTO 07004KT 1 1/4SM -SN OVC021 M13/M15 A3038 RMK SLP307 =
2018-01-16 03:33 METAR CYPQ 160333Z AUTO 07005KT 1 1/2SM -SN OVC023 M13/M15 A3038 RMK SLP307 =
2018-01-16 03:10 METAR CYPQ 160310Z AUTO 06006KT 1 1/2SM -SN OVC025 M13/M15 A3038 RMK SLP308 =
2018-01-16 03:07 METAR CYPQ 160307Z AUTO 06007KT 1 1/4SM -SN OVC025 M13/M15 A3038 RMK SLP307 =
2018-01-16 03:00 METAR CYPQ 160300Z AUTO 05006KT 1 1/4SM -SN OVC021 M13/M15 A3038 RMK SLP308 =
2018-01-16 02:58 METAR CYPQ 160258Z AUTO 06005KT 1 1/4SM -SN OVC021 M13/M15 A3038 RMK SLP308 =
2018-01-16 02:36 METAR CYPQ 160236Z AUTO 07008KT 2SM -SN OVC023 M13/M15 A3038 RMK SLP308 =
2018-01-16 02:12 METAR CYPQ 160212Z AUTO 06006KT 1 3/4SM -SN OVC025 M13/M14 A3040 RMK SLP312 =
2018-01-16 02:00 METAR CYPQ 160200Z AUTO 08007KT 1 3/4SM -SN OVC021 M13/M15 A3040 RMK SLP313 =
2018-01-16 01:00 METAR CYPQ 160100Z AUTO 06005KT 1 1/2SM -SN OVC023 M13/M15 A3041 RMK SLP315 =
2018-01-16 00:43 METAR CYPQ 160043Z AUTO 08007KT 050V110 1 1/2SM -SN OVC023 M13/M15 A3041 RMK
                 SLP317 =
2018-01-16 00:37 METAR CYPQ 160037Z AUTO 07008KT 2SM -SN OVC027 M13/M15 A3042 RMK SLP318 =
2018-01-16 00:35 METAR CYPQ 160035Z AUTO 07007KT 2 1/2SM -SN OVC029 M13/M15 A3042 RMK SLP318 =
2018-01-16 00:00 METAR CYPQ 160000Z AUTO 08005KT 3SM -SN OVC025 M13/M15 A3042 RMK SLP320 =
2018-01-15 23:00 METAR CYPQ 152300Z AUTO 07009KT 4SM -SN OVC033 M13/M15 A3043 RMK SLP324 =
2018-01-15 22:49 METAR CYPQ 152249Z AUTO 07008KT 5SM -SN OVC039 M13/M15 A3043 RMK SLP324 =
2018-01-15 22:24 METAR CYPQ 152224Z AUTO 08009KT 6SM -SN OVC037 M13/M15 A3044 RMK SLP326 =
2018-01-15 22:15 METAR CYPQ 152215Z AUTO 07008KT 040V110 3SM -SN OVC028 M13/M15 A3044 RMK SLP326
                 =
2018-01-15 22:10 METAR CYPQ 152210Z AUTO 07008KT 040V110 2 1/2SM -SN OVC026 M13/M15 A3044 RMK
                 SLP325 =
2018-01-15 22:09 METAR CYPQ 152209Z AUTO 08009KT 040V110 2 1/4SM -SN OVC026 M13/M15 A3044 RMK
                 SLP325 =
2018-01-15 22:00 METAR CYPQ 152200Z AUTO 07007G15KT 040V100 1 3/4SM -SN OVC024 M13/M15 A3043 RMK
                 SLP323 =
2018-01-15 21:43 METAR CYPQ 152143Z AUTO 07010G17KT 1 1/2SM -SN OVC024 M12/M16 A3044 RMK SLP325 =
2018-01-15 21:35 METAR CYPQ 152135Z AUTO 07010G18KT 2 1/4SM -SN FEW017 OVC026 M12/M16 A3044 RMK
                 VIS VRB 1 1/4-3 SLP325 =
2018-01-15 21:34 METAR CYPQ 152134Z AUTO 07012G18KT 2 1/2SM -SN FEW017 OVC026 M12/M16 A3043 RMK
                 SLP324 =
2018-01-15 21:30 METAR CYPQ 152130Z AUTO 07011G18KT 5SM -SN SCT019 OVC028 M12/M16 A3044 RMK
                 SLP325 =
2018-01-15 21:26 METAR CYPQ 152126Z AUTO 07009KT 9SM -SN SCT019 OVC032 M12/M17 A3045 RMK SLP328 =
2018-01-15 21:22 METAR CYPQ 152122Z AUTO 07009G15KT 9SM -SN BKN019 OVC034 M12/M17 A3045 RMK
                 SLP328 =
2018-01-15 21:00 METAR CYPQ 152100Z AUTO 08008KT 9SM BKN019 OVC065 M12/M16 A3046 RMK SLP332 =
2018-01-15 20:08 METAR CYPQ 152008Z AUTO 08006KT 9SM OVC019 M12/M16 A3046 RMK SLP332 =
2018-01-15 20:00 METAR CYPQ 152000Z AUTO 07009KT 050V110 9SM -SN OVC019 M12/M17 A3046 RMK SLP332
                 =
2018-01-15 19:58 METAR CYPQ 151958Z AUTO 07008KT 050V110 9SM -SN OVC019 M12/M17 A3046 RMK SLP332
                 =
2018-01-15 19:00 METAR CYPQ 151900Z AUTO 08010G15KT 9SM BKN017 OVC090 M12/M17 A3046 RMK SLP334 =
2018-01-15 18:19 METAR CYPQ 151819Z AUTO 07010G16KT 9SM SCT017 OVC110 M13/M17 A3048 RMK SLP338 =
2018-01-15 18:00 METAR CYPQ 151800Z AUTO 08008G17KT 050V110 9SM OVC017 M13/M17 A3049 RMK SLP342 =
2018-01-15 17:18 METAR CYPQ 151718Z AUTO 08008G16KT 050V110 9SM OVC017 M13/M18 A3052 RMK SLP354 =
2018-01-15 17:08 METAR CYPQ 151708Z AUTO 07007G16KT 9SM -SN OVC017 M13/M18 A3053 RMK SLP356 =
2018-01-15 17:00 METAR CYPQ 151700Z AUTO 08010KT 9SM OVC017 M13/M19 A3054 RMK SLP359 =
2018-01-15 16:00 METAR CYPQ 151600Z AUTO 06011KT 9SM BKN022 M14/M20 A3058 RMK SLP376 =
2018-01-15 15:49 METAR CYPQ 151549Z AUTO 08007G15KT 9SM FEW019 BKN024 M15/M20 A3059 RMK SLP379 =
2018-01-15 15:00 METAR CYPQ 151500Z AUTO 07013G19KT 9SM CLR M15/M20 A3060 RMK SLP383 =
2018-01-15 14:00 METAR CYPQ 151400Z AUTO 09010G15KT 050V140 9SM CLR M16/M20 A3062 RMK SLP389 =
2018-01-15 13:00 METAR CYPQ 151300Z AUTO 09008KT 060V120 9SM BKN200 BKN220 M15/M19 A3062 RMK
                 SLP388 =
2018-01-15 12:00 METAR CYPQ 151200Z AUTO 08005KT 060V130 9SM BKN140 BKN210 M15/M19 A3062 RMK
                 SLP389 =

Support USWX by starting your Amazon purchase here.